Time;durP1;ratioP1;P1;durP2;ratioP2;P2;SDS_P1;SDS_P2;PMS_P1;PMS_P2;Temp;Humidity;BMP_temperature;BMP_pressure;BME280_temperature;BME280_humidity;BME280_pressure;Samples;Min_cycle;Max_cycle;Signal;HPM_P1;HPM_P2
2023/04/21 00:04:12;;;;;;;22.40;16.97;;;10.00;99.90;;;;;;12768689;23;20231;-79
2023/04/21 00:09:17;;;;;;;14.97;11.23;;;9.90;99.90;;;;;;12811700;23;20171;-79
2023/04/21 00:14:20;;;;;;;22.37;15.13;;;10.00;99.90;;;;;;12794623;23;20183;-78
2023/04/21 00:19:23;;;;;;;22.27;17.03;;;9.80;99.90;;;;;;12807713;23;20200;-79
2023/04/21 00:24:25;;;;;;;17.20;12.87;;;9.80;99.90;;;;;;12794871;23;20670;-79
2023/04/21 00:29:28;;;;;;;15.53;11.27;;;9.90;99.90;;;;;;12795216;23;20632;-79
2023/04/21 00:34:31;;;;;;;8.70;7.57;;;10.10;99.90;;;;;;12793952;23;20578;-79
2023/04/21 00:39:33;;;;;;;11.73;9.37;;;10.20;99.90;;;;;;12768272;23;20180;-79
2023/04/21 00:44:36;;;;;;;27.13;17.83;;;10.20;99.90;;;;;;12767693;23;20238;-79
2023/04/21 00:49:39;;;;;;;19.10;15.00;;;9.90;99.90;;;;;;12767959;23;20211;-79
2023/04/21 00:54:42;;;;;;;20.70;14.80;;;9.60;99.90;;;;;;12795491;23;20171;-79
2023/04/21 00:59:45;;;;;;;21.77;16.17;;;9.60;99.90;;;;;;12766911;23;20234;-79
2023/04/21 01:04:47;;;;;;;23.97;16.33;;;9.70;99.90;;;;;;12767004;23;20254;-79
2023/04/21 01:09:50;;;;;;;21.73;15.20;;;9.60;99.90;;;;;;12767802;23;20240;-79
2023/04/21 01:14:52;;;;;;;18.57;14.20;;;9.50;99.90;;;;;;12767969;23;20218;-79
2023/04/21 01:19:56;;;;;;;16.33;13.63;;;9.50;99.90;;;;;;12766578;23;20180;-79
2023/04/21 01:25:00;;;;;;;16.90;14.17;;;9.60;99.90;;;;;;12767271;23;20236;-79
2023/04/21 01:30:07;;;;;;;18.27;15.73;;;9.40;99.90;;;;;;12792445;23;20183;-79
2023/04/21 01:35:10;;;;;;;21.63;15.27;;;9.40;99.90;;;;;;12766740;23;20188;-79
2023/04/21 01:40:13;;;;;;;19.70;16.17;;;9.50;99.90;;;;;;12767341;23;20237;-79
2023/04/21 01:45:16;;;;;;;25.03;17.10;;;9.30;99.90;;;;;;12766595;23;20204;-79
2023/04/21 01:50:19;;;;;;;20.07;14.30;;;;;;;;;;12766194;23;20247;-79
2023/04/21 01:55:21;;;;;;;18.40;14.63;;;8.50;99.90;;;;;;12793467;23;20688;-79
2023/04/21 02:00:25;;;;;;;14.40;11.97;;;;;;;;;;12791019;23;20272;-79
2023/04/21 02:05:29;;;;;;;15.30;12.87;;;8.30;99.90;;;;;;12792468;23;20234;-78
2023/04/21 02:10:32;;;;;;;22.23;15.13;;;8.00;99.90;;;;;;12765248;23;20292;-79
2023/04/21 02:15:36;;;;;;;20.00;14.60;;;8.10;99.90;;;;;;12792662;23;20183;-79
2023/04/21 02:20:39;;;;;;;22.90;17.50;;;8.30;99.90;;;;;;12765549;23;20183;-79
2023/04/21 02:25:41;;;;;;;9.93;8.80;;;8.40;99.90;;;;;;12764560;23;20196;-79
2023/04/21 02:30:44;;;;;;;17.03;12.57;;;8.40;99.90;;;;;;12765069;23;20180;-79
2023/04/21 02:35:46;;;;;;;21.13;15.90;;;8.60;99.90;;;;;;12790828;23;20187;-79
2023/04/21 02:40:51;;;;;;;14.70;12.77;;;8.80;99.90;;;;;;12740840;23;20238;-79
2023/04/21 02:45:54;;;;;;;14.97;12.20;;;8.90;99.90;;;;;;12791565;23;20534;-79
2023/04/21 02:50:56;;;;;;;14.00;10.87;;;8.80;99.90;;;;;;12765084;23;20243;-79
2023/04/21 02:56:01;;;;;;;15.73;12.87;;;8.90;99.90;;;;;;12765658;23;20571;-79
2023/04/21 03:01:05;;;;;;;16.60;13.70;;;8.80;99.90;;;;;;12765602;23;20180;-79
2023/04/21 03:06:09;;;;;;;13.10;9.73;;;;;;;;;;12763817;23;20255;-79
2023/04/21 03:11:13;;;;;;;17.47;14.03;;;9.30;99.90;;;;;;12766063;23;20160;-79
2023/04/21 03:16:16;;;;;;;17.63;13.70;;;9.20;99.90;;;;;;12764959;23;20183;-79
2023/04/21 03:21:19;;;;;;;15.80;13.27;;;9.20;99.90;;;;;;12764886;23;20242;-79
2023/04/21 03:26:21;;;;;;;14.43;11.50;;;9.20;99.90;;;;;;12765650;23;20535;-79
2023/04/21 03:31:24;;;;;;;14.03;11.67;;;9.20;99.90;;;;;;12809891;23;20222;-79
2023/04/21 03:36:26;;;;;;;14.67;11.77;;;8.80;99.90;;;;;;12799685;23;20171;-79
2023/04/21 03:41:29;;;;;;;10.50;8.97;;;8.90;99.90;;;;;;12769485;23;20184;-79
2023/04/21 03:46:31;;;;;;;19.67;12.50;;;9.10;99.90;;;;;;12767994;23;20209;-79
2023/04/21 03:51:34;;;;;;;10.00;8.43;;;9.30;99.90;;;;;;12792816;23;20532;-79
2023/04/21 03:56:37;;;;;;;14.57;8.77;;;;;;;;;;12769461;23;20510;-79
2023/04/21 04:01:41;;;;;;;9.73;8.23;;;9.80;99.90;;;;;;12768627;23;20239;-79
2023/04/21 04:06:43;;;;;;;11.73;10.43;;;9.90;99.90;;;;;;12795478;23;20187;-79
2023/04/21 04:11:46;;;;;;;8.87;7.60;;;9.90;99.90;;;;;;12794586;23;20166;-79
2023/04/21 04:16:48;;;;;;;12.90;9.43;;;9.80;99.90;;;;;;12768190;23;20186;-78
2023/04/21 04:21:51;;;;;;;16.53;11.43;;;9.80;99.90;;;;;;12768175;23;20520;-79
2023/04/21 04:26:54;;;;;;;10.37;8.83;;;10.10;99.90;;;;;;12792434;23;20584;-79
2023/04/21 04:31:57;;;;;;;20.20;15.00;;;10.20;99.90;;;;;;12812508;23;20164;-79
2023/04/21 04:37:01;;;;;;;14.77;11.27;;;10.10;99.90;;;;;;12797992;23;20170;-79
2023/04/21 04:42:10;;;;;;;14.73;10.77;;;10.00;99.90;;;;;;12768422;23;20180;-79
2023/04/21 04:47:13;;;;;;;19.20;13.33;;;10.30;99.90;;;;;;12803820;23;20197;-79
2023/04/21 04:52:15;;;;;;;12.00;9.87;;;10.50;99.90;;;;;;12794644;23;20163;-78
2023/04/21 04:57:17;;;;;;;16.27;10.73;;;11.20;99.90;;;;;;12794587;23;20180;-78
2023/04/21 05:02:21;;;;;;;16.27;12.30;;;11.30;99.90;;;;;;12794232;23;20166;-78
2023/04/21 05:07:24;;;;;;;14.47;12.90;;;10.90;99.90;;;;;;12793973;23;20230;-78
2023/04/21 05:12:27;;;;;;;14.47;12.63;;;10.80;99.90;;;;;;12767761;23;20213;-78
2023/04/21 05:17:29;;;;;;;17.00;13.23;;;10.60;99.90;;;;;;12792668;23;20212;-78
2023/04/21 05:22:39;;;;;;;14.40;10.90;;;10.70;99.90;;;;;;12793215;23;20180;-78
2023/04/21 05:27:42;;;;;;;12.83;10.67;;;10.90;99.90;;;;;;12793353;23;20236;-78
2023/04/21 05:32:44;;;;;;;16.13;12.17;;;11.10;99.90;;;;;;12792942;23;20569;-78
2023/04/21 05:37:47;;;;;;;16.87;12.83;;;11.30;99.90;;;;;;12790887;23;20232;-79
2023/04/21 05:42:49;;;;;;;13.87;10.10;;;11.30;99.90;;;;;;12764523;23;20264;-79
2023/04/21 05:47:52;;;;;;;15.60;11.63;;;11.30;99.90;;;;;;12791878;23;20199;-79
2023/04/21 05:52:55;;;;;;;12.17;10.70;;;11.30;99.90;;;;;;12792401;23;20193;-78
2023/04/21 05:57:57;;;;;;;12.00;9.50;;;11.60;99.90;;;;;;12792084;23;20173;-78
2023/04/21 06:03:00;;;;;;;12.37;9.10;;;12.00;99.90;;;;;;12792817;23;20569;-79
2023/04/21 06:08:03;;;;;;;10.43;8.60;;;11.90;99.90;;;;;;12765289;23;20228;-80
2023/04/21 06:13:05;;;;;;;13.30;10.27;;;12.50;99.30;;;;;;12789323;23;20581;-80
2023/04/21 06:18:08;;;;;;;11.43;8.50;;;12.90;99.90;;;;;;12762944;23;20237;-82
2023/04/21 06:23:10;;;;;;;13.47;11.40;;;12.90;98.60;;;;;;12809471;23;20190;-82
2023/04/21 06:28:14;;;;;;;7.63;6.83;;;13.20;94.80;;;;;;12792202;23;20166;-80
2023/04/21 06:44:14;;;;;;;16.17;12.80;;;13.60;92.00;;;;;;12830318;23;20599;-96
2023/04/21 06:49:17;;;;;;;14.73;11.43;;;13.30;90.40;;;;;;12851235;23;20166;-96
2023/04/21 06:54:20;;;;;;;17.07;11.73;;;13.20;88.50;;;;;;12852363;23;20176;-96
2023/04/21 06:59:22;;;;;;;14.67;11.37;;;12.90;90.30;;;;;;12874188;23;20169;-96
2023/04/21 07:04:28;;;;;;;14.93;11.93;;;13.20;90.70;;;;;;12856861;23;20188;-96
2023/04/21 07:09:32;;;;;;;17.77;12.20;;;13.00;89.50;;;;;;12853639;23;20259;-96
2023/04/21 07:14:35;;;;;;;14.40;11.20;;;13.10;89.40;;;;;;12855986;23;20179;-96
2023/04/21 07:19:38;;;;;;;22.73;11.23;;;13.10;90.20;;;;;;12855576;23;20175;-96
2023/04/21 07:24:41;;;;;;;15.57;11.47;;;13.30;89.70;;;;;;12854613;23;20203;-96
2023/04/21 07:29:44;;;;;;;17.10;11.83;;;13.50;90.40;;;;;;12856685;23;20179;-95
2023/04/21 07:34:47;;;;;;;13.73;11.07;;;13.70;86.90;;;;;;12857335;23;20179;-95
2023/04/21 07:39:49;;;;;;;10.93;9.33;;;13.90;89.00;;;;;;12854163;23;20226;-96
2023/04/21 07:44:52;;;;;;;10.23;7.93;;;14.40;91.40;;;;;;12854008;23;20194;-95
2023/04/21 07:49:55;;;;;;;9.90;7.57;;;14.80;91.40;;;;;;12858004;23;20246;-95
2023/04/21 07:54:57;;;;;;;12.13;10.63;;;14.80;88.70;;;;;;12857529;23;20183;-95
2023/04/21 08:00:00;;;;;;;19.90;10.03;;;15.00;80.80;;;;;;12851053;23;20186;-94
2023/04/21 08:05:02;;;;;;;13.90;9.80;;;15.00;86.00;;;;;;12850079;23;20234;-94
2023/04/21 08:10:06;;;;;;;14.53;9.57;;;15.10;78.60;;;;;;12827578;23;20179;-94
2023/04/21 08:15:11;;;;;;;12.70;9.97;;;15.20;73.90;;;;;;12852861;23;20180;-94
2023/04/21 08:20:14;;;;;;;14.40;10.43;;;15.20;76.70;;;;;;12830428;23;20237;-96
2023/04/21 08:25:16;;;;;;;14.37;10.23;;;15.30;65.40;;;;;;12859879;23;20202;-94
2023/04/21 08:30:19;;;;;;;12.60;8.20;;;15.50;70.10;;;;;;12856005;23;20170;-93
2023/04/21 08:35:22;;;;;;;37.37;11.87;;;15.60;67.80;;;;;;12871998;23;20219;-94
2023/04/21 08:40:35;;;;;;;12.33;9.00;;;15.70;75.50;;;;;;12859611;23;20806;-96
2023/04/21 08:45:38;;;;;;;19.93;8.77;;;16.00;65.40;;;;;;12899090;23;20196;-96
2023/04/21 08:50:43;;;;;;;28.40;12.07;;;16.20;67.50;;;;;;12864657;23;20186;-96
2023/04/21 08:55:50;;;;;;;24.17;10.07;;;16.30;70.10;;;;;;12873334;23;20605;-93
2023/04/21 09:01:11;;;;;;;39.40;13.10;;;16.60;70.50;;;;;;12855242;23;20231;-94
2023/04/21 09:06:14;;;;;;;8.03;7.10;;;16.70;67.20;;;;;;12854288;23;20274;-92
2023/04/21 09:11:18;;;;;;;14.37;8.57;;;16.80;45.50;;;;;;12876988;23;20225;-95
2023/04/21 09:16:21;;;;;;;9.50;7.10;;;16.80;51.50;;;;;;12850337;23;20186;-94
2023/04/21 09:21:27;;;;;;;24.20;9.47;;;16.90;50.00;;;;;;12851506;23;20179;-93
2023/04/21 09:26:33;;;;;;;35.80;12.43;;;17.10;56.80;;;;;;12875593;23;20205;-94
2023/04/21 09:31:38;;;;;;;6.90;6.20;;;17.20;54.80;;;;;;12850268;23;20207;-93
2023/04/21 09:36:41;;;;;;;14.77;7.97;;;17.20;41.10;;;;;;12850203;23;20246;-95
2023/04/21 09:41:43;;;;;;;8.60;6.70;;;17.30;45.20;;;;;;12849706;23;20207;-93
2023/04/21 09:46:51;;;;;;;30.00;11.63;;;17.40;42.90;;;;;;12850590;23;20193;-93
2023/04/21 09:51:55;;;;;;;20.03;7.60;;;17.50;46.50;;;;;;12848948;23;20209;-92
2023/04/21 09:57:23;;;;;;;31.27;10.57;;;17.60;52.30;;;;;;12848300;23;20215;-93
2023/04/21 10:02:30;;;;;;;21.47;9.83;;;17.60;42.80;;;;;;12849640;23;20181;-93
2023/04/21 10:07:33;;;;;;;19.57;7.83;;;17.70;43.10;;;;;;12849359;23;20608;-93
2023/04/21 10:12:35;;;;;;;12.93;7.17;;;17.70;35.90;;;;;;12851079;23;20227;-93
2023/04/21 10:17:38;;;;;;;22.00;8.43;;;17.70;35.00;;;;;;12850818;23;20237;-93
2023/04/21 10:22:41;;;;;;;22.27;8.83;;;17.80;36.90;;;;;;12851632;23;20185;-93
2023/04/21 10:27:44;;;;;;;14.23;6.50;;;17.90;45.80;;;;;;12849539;23;20574;-94
2023/04/21 10:32:47;;;;;;;21.47;10.60;;;17.90;39.90;;;;;;12849988;23;20167;-93
2023/04/21 10:37:50;;;;;;;9.93;6.33;;;18.00;50.70;;;;;;12850545;23;20249;-94
2023/04/21 10:42:54;;;;;;;20.50;8.97;;;18.00;41.70;;;;;;12855522;23;20501;-93
2023/04/21 10:48:00;;;;;;;16.77;8.97;;;18.00;51.00;;;;;;12822740;23;20206;-93
2023/04/21 10:53:12;;;;;;;8.57;6.70;;;18.10;53.90;;;;;;12867613;23;20166;-94
2023/04/21 10:58:15;;;;;;;9.50;6.77;;;18.10;42.40;;;;;;12850084;23;20192;-94
2023/04/21 11:03:17;;;;;;;13.70;7.03;;;18.00;33.60;;;;;;12850231;23;20216;-93
2023/04/21 11:08:20;;;;;;;8.30;6.60;;;18.10;32.30;;;;;;12869472;23;20209;-95
2023/04/21 11:13:25;;;;;;;12.77;7.20;;;18.10;30.30;;;;;;12851149;23;20601;-95
2023/04/21 11:18:37;;;;;;;8.17;6.27;;;18.10;35.50;;;;;;12850049;23;20855;-92
2023/04/21 11:23:42;;;;;;;18.80;8.80;;;18.00;25.60;;;;;;12848451;23;20567;-94
2023/04/21 11:28:48;;;;;;;14.70;7.30;;;18.20;41.90;;;;;;12874657;23;20707;-96
2023/04/21 11:33:51;;;;;;;10.63;7.50;;;18.20;44.00;;;;;;12893709;23;20162;-93
2023/04/21 11:38:53;;;;;;;12.77;7.70;;;18.20;34.40;;;;;;12849653;23;20178;-94
2023/04/21 11:43:56;;;;;;;9.83;6.57;;;18.30;46.50;;;;;;12848377;23;20201;-94
2023/04/21 11:49:03;;;;;;;12.97;6.97;;;18.10;27.10;;;;;;12848898;23;20592;-93
2023/04/21 11:54:10;;;;;;;13.17;7.50;;;18.10;29.80;;;;;;12874560;23;20261;-92
2023/04/21 11:59:21;;;;;;;14.27;7.67;;;18.30;32.80;;;;;;12851564;23;20234;-93
2023/04/21 12:04:27;;;;;;;12.03;7.30;;;18.30;36.60;;;;;;12850475;23;20261;-91
2023/04/21 12:09:30;;;;;;;15.50;7.67;;;;;;;;;;12853550;23;20181;-93
2023/04/21 12:14:33;;;;;;;8.03;6.47;;;18.30;37.50;;;;;;12895750;23;20171;-92
2023/04/21 12:19:35;;;;;;;12.63;6.67;;;18.20;26.70;;;;;;12875942;23;20202;-93
2023/04/21 12:24:39;;;;;;;11.00;6.43;;;18.30;34.40;;;;;;12874780;23;20201;-92
2023/04/21 12:29:41;;;;;;;9.50;6.27;;;18.30;24.60;;;;;;12874699;23;20174;-92
2023/04/21 12:34:44;;;;;;;7.27;6.03;;;18.40;27.50;;;;;;12868489;23;20544;-92
2023/04/21 12:39:47;;;;;;;9.53;6.50;;;18.30;27.80;;;;;;12852849;23;20187;-92
2023/04/21 12:44:49;;;;;;;8.73;6.77;;;18.30;29.90;;;;;;12853835;23;20205;-92
2023/04/21 12:49:52;;;;;;;8.20;5.93;;;18.30;26.50;;;;;;12852774;23;20230;-91
2023/04/21 12:54:54;;;;;;;10.40;6.43;;;18.30;25.40;;;;;;12855117;23;20247;-92
2023/04/21 12:59:57;;;;;;;9.00;5.33;;;18.30;31.50;;;;;;12852187;23;20215;-90
2023/04/21 13:04:59;;;;;;;8.77;6.27;;;18.30;27.80;;;;;;12876269;23;20190;-92
2023/04/21 13:10:05;;;;;;;11.40;5.10;;;18.40;30.90;;;;;;12850961;23;20187;-92
2023/04/21 13:15:08;;;;;;;6.93;5.60;;;18.30;29.30;;;;;;12849785;23;20661;-91
2023/04/21 13:20:11;;;;;;;11.43;7.03;;;18.30;24.00;;;;;;12851214;23;20179;-92
2023/04/21 13:25:13;;;;;;;7.23;4.83;;;18.30;34.30;;;;;;12850342;23;20253;-92
2023/04/21 13:30:16;;;;;;;11.07;5.60;;;18.30;27.10;;;;;;12875876;23;20171;-91
2023/04/21 13:35:19;;;;;;;9.17;6.13;;;18.40;27.40;;;;;;12853157;23;20240;-91
2023/04/21 13:40:21;;;;;;;5.97;3.93;;;18.40;26.10;;;;;;12850263;23;20210;-90
2023/04/21 13:45:24;;;;;;;6.47;5.07;;;18.30;21.10;;;;;;12850291;23;20198;-91
2023/04/21 13:50:27;;;;;;;6.23;5.03;;;18.40;25.20;;;;;;12872536;23;20200;-92
2023/04/21 13:55:30;;;;;;;10.97;5.67;;;18.40;22.10;;;;;;12852226;23;20588;-91
2023/04/21 14:00:32;;;;;;;6.77;4.87;;;18.50;26.90;;;;;;12853455;23;20217;-91
2023/04/21 14:05:35;;;;;;;7.57;5.80;;;18.50;22.10;;;;;;12876860;23;20268;-90
2023/04/21 14:10:38;;;;;;;6.73;4.90;;;18.60;28.40;;;;;;12851685;23;20204;-91
2023/04/21 14:15:42;;;;;;;9.60;5.10;;;18.60;17.50;;;;;;12852349;23;20194;-93
2023/04/21 14:20:45;;;;;;;7.60;5.20;;;18.60;40.10;;;;;;12854138;23;20177;-89
2023/04/21 14:25:47;;;;;;;6.27;5.03;;;18.50;22.90;;;;;;12851605;23;20204;-91
2023/04/21 14:30:50;;;;;;;6.93;5.70;;;18.60;25.40;;;;;;12875661;23;20213;-91
2023/04/21 14:35:52;;;;;;;10.83;5.47;;;18.60;27.30;;;;;;12893445;23;20171;-91
2023/04/21 14:40:55;;;;;;;6.43;4.80;;;18.50;28.10;;;;;;12849071;23;20211;-92
2023/04/21 14:45:58;;;;;;;6.90;4.83;;;18.40;19.20;;;;;;12852445;23;20195;-91
2023/04/21 14:51:01;;;;;;;10.70;4.77;;;18.40;25.40;;;;;;12874361;23;20685;-91
2023/04/21 14:56:03;;;;;;;7.87;5.57;;;18.40;29.10;;;;;;12855588;23;20182;-94
2023/04/21 15:01:06;;;;;;;10.87;5.47;;;18.50;32.90;;;;;;12870540;23;20225;-93
2023/04/21 15:06:09;;;;;;;5.93;4.80;;;18.40;27.40;;;;;;12851437;23;20732;-91
2023/04/21 15:11:12;;;;;;;6.67;4.80;;;18.40;29.60;;;;;;12872492;23;20590;-92
2023/04/21 15:16:14;;;;;;;8.17;4.60;;;18.20;20.90;;;;;;12873118;23;20169;-91
2023/04/21 15:21:20;;;;;;;5.97;4.47;;;18.10;26.50;;;;;;12847387;23;20187;-93
2023/04/21 15:26:23;;;;;;;5.50;4.00;;;18.10;20.30;;;;;;12863274;23;20187;-90
2023/04/21 15:31:27;;;;;;;6.73;4.37;;;17.90;18.70;;;;;;12857163;23;20548;-94
2023/04/21 15:36:30;;;;;;;7.17;4.60;;;17.80;18.60;;;;;;12853708;23;20241;-94
2023/04/21 15:41:34;;;;;;;7.47;4.63;;;17.80;28.50;;;;;;12853202;23;20545;-94
2023/04/21 15:46:36;;;;;;;7.37;3.97;;;17.80;25.90;;;;;;12873034;23;20744;-94
2023/04/21 15:51:40;;;;;;;8.23;4.60;;;17.70;29.90;;;;;;12851814;23;20174;-93
2023/04/21 15:56:42;;;;;;;10.03;4.43;;;17.80;33.60;;;;;;12848458;23;20575;-94
2023/04/21 16:01:45;;;;;;;4.60;3.53;;;17.70;20.30;;;;;;12848780;23;20241;-93
2023/04/21 16:06:48;;;;;;;5.53;4.37;;;17.60;23.20;;;;;;12825846;23;20726;-94
2023/04/21 16:11:51;;;;;;;11.43;4.40;;;17.40;20.10;;;;;;12852672;23;20190;-94
2023/04/21 16:16:53;;;;;;;8.20;4.13;;;17.30;19.40;;;;;;12853209;23;20229;-94
2023/04/21 16:21:57;;;;;;;6.80;4.83;;;17.20;22.30;;;;;;12851711;23;20171;-94
2023/04/21 16:27:01;;;;;;;9.53;5.13;;;17.00;22.00;;;;;;12850542;23;20263;-93
2023/04/21 16:32:04;;;;;;;9.03;4.63;;;16.90;23.20;;;;;;12852759;23;20262;-94
2023/04/21 16:37:06;;;;;;;7.40;4.73;;;16.70;22.50;;;;;;12876408;23;20183;-94
2023/04/21 16:42:09;;;;;;;5.97;4.37;;;16.60;23.60;;;;;;12863485;23;20252;-95
2023/04/21 16:47:12;;;;;;;6.30;4.37;;;16.60;25.40;;;;;;12850433;23;20508;-93
2023/04/21 16:52:14;;;;;;;16.53;6.20;;;16.50;24.10;;;;;;12855515;23;20179;-94
2023/04/21 16:57:18;;;;;;;11.67;4.50;;;16.40;24.60;;;;;;12853985;23;20210;-82
2023/04/21 17:02:20;;;;;;;16.47;5.53;;;16.60;27.10;;;;;;12787942;23;20183;-82
2023/04/21 17:07:23;;;;;;;5.77;4.23;;;16.60;27.50;;;;;;12787434;23;20596;-82
2023/04/21 17:12:26;;;;;;;14.43;4.77;;;16.50;24.80;;;;;;12788347;23;20227;-82
2023/04/21 17:17:41;;;;;;;8.30;4.80;;;16.40;28.80;;;;;;12761994;23;20182;-82
2023/04/21 17:22:44;;;;;;;6.13;4.27;;;16.20;26.30;;;;;;12806538;23;20202;-82
2023/04/21 17:27:46;;;;;;;10.93;4.80;;;15.70;27.70;;;;;;12789206;23;20183;-82
2023/04/21 17:32:49;;;;;;;12.80;5.10;;;15.20;29.40;;;;;;12787400;23;20219;-82
2023/04/21 17:38:10;;;;;;;8.80;4.60;;;14.80;33.40;;;;;;12808373;23;20196;-82
2023/04/21 17:43:12;;;;;;;22.37;5.73;;;14.60;34.10;;;;;;12764468;23;20193;-82
2023/04/21 17:48:15;;;;;;;12.80;5.60;;;14.30;42.50;;;;;;12789531;23;20203;-82
2023/04/21 17:53:17;;;;;;;12.40;5.13;;;13.80;47.30;;;;;;12789782;23;20175;-81
2023/04/21 17:58:20;;;;;;;18.53;7.43;;;13.30;50.60;;;;;;12796077;23;20227;-82
2023/04/21 18:03:22;;;;;;;18.83;7.10;;;13.20;54.10;;;;;;12789882;23;20183;-84
2023/04/21 18:08:25;;;;;;;14.70;6.73;;;13.10;66.00;;;;;;12790774;23;20190;-83
2023/04/21 18:13:28;;;;;;;14.17;6.23;;;12.80;66.10;;;;;;12762930;23;20255;-84
2023/04/21 18:18:30;;;;;;;9.87;6.47;;;12.30;69.20;;;;;;12789654;23;20170;-83
2023/04/21 18:23:33;;;;;;;12.00;5.90;;;11.90;80.40;;;;;;12790623;23;20168;-83
2023/04/21 18:28:36;;;;;;;21.60;7.57;;;11.60;88.30;;;;;;12790009;23;20184;-83
2023/04/21 18:33:38;;;;;;;25.93;8.60;;;11.10;94.30;;;;;;12790720;23;20169;-83
2023/04/21 18:38:41;;;;;;;37.43;8.10;;;11.10;94.60;;;;;;12788526;23;20172;-83
2023/04/21 18:43:44;;;;;;;19.70;6.80;;;10.90;96.60;;;;;;12787514;23;20172;-83
2023/04/21 18:48:47;;;;;;;13.37;7.70;;;;;;;;;;12759640;23;20237;-86
2023/04/21 18:53:49;;;;;;;12.30;8.10;;;10.40;96.20;;;;;;12803472;23;20168;-83
2023/04/21 18:58:52;;;;;;;14.67;7.87;;;;;;;;;;12758456;23;20204;-83
2023/04/21 19:03:55;;;;;;;10.70;6.97;;;10.20;98.50;;;;;;12784134;23;20575;-82
2023/04/21 19:08:57;;;;;;;9.93;5.23;;;10.00;97.40;;;;;;12759279;23;20203;-82
2023/04/21 19:14:00;;;;;;;9.30;5.17;;;10.00;97.90;;;;;;12785227;23;20179;-82
2023/04/21 19:19:03;;;;;;;16.03;6.97;;;10.00;98.80;;;;;;12786657;23;20518;-83
2023/04/21 19:24:06;;;;;;;10.53;7.07;;;9.90;99.90;;;;;;12784844;23;20525;-82
2023/04/21 19:29:11;;;;;;;31.20;11.00;;;9.80;99.90;;;;;;12785158;23;20180;-83
2023/04/21 19:34:13;;;;;;;22.03;11.37;;;9.60;99.90;;;;;;12801461;23;20172;-83
2023/04/21 19:39:16;;;;;;;21.43;10.97;;;9.30;99.90;;;;;;12784697;23;20193;-83
2023/04/21 19:44:18;;;;;;;24.77;11.60;;;9.20;99.90;;;;;;12786899;23;20222;-83
2023/04/21 19:49:21;;;;;;;22.83;11.17;;;9.00;99.90;;;;;;12784947;23;20262;-83
2023/04/21 19:54:24;;;;;;;21.10;12.27;;;8.80;99.90;;;;;;12785186;23;20558;-82
2023/04/21 19:59:26;;;;;;;15.90;9.83;;;8.90;99.90;;;;;;12784326;23;20274;-83
2023/04/21 20:04:29;;;;;;;18.17;9.33;;;8.90;99.90;;;;;;12758860;23;20180;-83
2023/04/21 20:09:32;;;;;;;13.63;9.77;;;8.90;99.90;;;;;;12757052;23;20258;-83
2023/04/21 20:14:34;;;;;;;21.53;12.77;;;9.00;99.90;;;;;;12783634;23;20219;-84
2023/04/21 20:19:39;;;;;;;25.83;13.10;;;9.10;99.40;;;;;;12787890;23;20741;-80
2023/04/21 20:24:41;;;;;;;25.27;15.27;;;9.20;99.30;;;;;;12762113;23;20638;-82
2023/04/21 20:29:45;;;;;;;24.50;14.97;;;9.30;99.90;;;;;;12786979;23;20230;-82
2023/04/21 20:34:48;;;;;;;26.23;15.30;;;9.40;99.90;;;;;;12789546;23;20485;-81
2023/04/21 20:39:51;;;;;;;22.30;14.30;;;9.30;99.90;;;;;;12789240;23;20172;-81
2023/04/21 20:44:53;;;;;;;17.47;12.27;;;9.30;99.90;;;;;;12787410;23;20187;-82
2023/04/21 20:49:57;;;;;;;22.73;13.53;;;9.20;99.90;;;;;;12810650;23;20188;-82
2023/04/21 20:55:00;;;;;;;19.17;12.30;;;9.20;99.90;;;;;;12788491;23;20577;-82
2023/04/21 21:00:06;;;;;;;16.23;11.50;;;9.00;99.90;;;;;;12791529;23;20227;-81
2023/04/21 21:05:09;;;;;;;14.20;10.67;;;8.90;99.90;;;;;;12807150;23;20195;-82
2023/04/21 21:10:11;;;;;;;15.03;9.83;;;8.90;99.90;;;;;;12790657;23;20191;-86
2023/04/21 21:15:14;;;;;;;17.13;9.37;;;8.80;99.90;;;;;;12766222;23;20689;-84
2023/04/21 21:20:16;;;;;;;17.50;9.63;;;8.80;99.90;;;;;;12790326;23;20171;-83
2023/04/21 21:25:19;;;;;;;13.23;7.93;;;9.10;99.90;;;;;;12790142;23;20242;-81
2023/04/21 21:30:22;;;;;;;12.10;7.73;;;9.40;99.90;;;;;;12786781;23;20203;-81
2023/04/21 21:35:25;;;;;;;12.10;7.10;;;9.80;99.90;;;;;;12763029;23;20180;-81
2023/04/21 21:40:27;;;;;;;11.83;9.07;;;10.00;99.90;;;;;;12789847;23;20177;-82
2023/04/21 21:45:30;;;;;;;11.47;7.83;;;9.60;99.90;;;;;;12788945;23;20242;-81
2023/04/21 21:50:32;;;;;;;11.63;7.10;;;9.50;99.90;;;;;;12762217;23;20215;-82
2023/04/21 21:55:35;;;;;;;11.87;7.33;;;9.40;99.90;;;;;;12780394;23;20593;-81
2023/04/21 22:00:37;;;;;;;13.80;7.40;;;9.10;99.90;;;;;;12762356;23;20181;-82
2023/04/21 22:05:41;;;;;;;9.07;7.17;;;8.90;99.90;;;;;;12785528;23;20184;-82
2023/04/21 22:10:44;;;;;;;14.87;8.97;;;8.70;99.90;;;;;;12780098;23;20253;-82
2023/04/21 22:15:46;;;;;;;11.33;7.97;;;8.80;99.90;;;;;;12806185;23;20163;-82
2023/04/21 22:20:49;;;;;;;10.77;6.47;;;8.50;99.90;;;;;;12762613;23;20545;-81
2023/04/21 22:25:51;;;;;;;11.07;6.23;;;8.70;99.90;;;;;;12788923;23;20522;-81
2023/04/21 22:30:54;;;;;;;8.00;6.13;;;9.30;99.90;;;;;;12806784;23;20256;-82
2023/04/21 22:35:57;;;;;;;9.33;6.20;;;9.60;99.90;;;;;;12780191;23;20242;-82
2023/04/21 22:41:01;;;;;;;8.67;6.50;;;9.40;99.90;;;;;;12787773;23;20238;-81
2023/04/21 22:46:03;;;;;;;10.37;6.53;;;9.40;99.90;;;;;;12760945;23;20179;-82
2023/04/21 22:51:07;;;;;;;9.13;6.47;;;9.50;99.90;;;;;;12788986;23;20284;-81
2023/04/21 22:56:10;;;;;;;9.00;6.70;;;8.80;99.90;;;;;;12777307;23;20196;-82
2023/04/21 23:01:13;;;;;;;10.57;6.83;;;8.40;99.90;;;;;;12761449;23;20234;-82
2023/04/21 23:06:15;;;;;;;7.47;5.90;;;8.40;99.90;;;;;;12805412;23;20199;-81
2023/04/21 23:11:18;;;;;;;11.43;6.30;;;7.70;99.90;;;;;;12787075;23;20262;-81
2023/04/21 23:16:21;;;;;;;8.93;5.87;;;7.40;99.90;;;;;;12788960;23;20262;-82
2023/04/21 23:21:23;;;;;;;7.83;5.83;;;7.50;99.90;;;;;;12778666;23;20619;-82
2023/04/21 23:26:26;;;;;;;11.17;6.33;;;7.10;99.90;;;;;;12788306;23;20179;-81
2023/04/21 23:31:30;;;;;;;10.27;5.90;;;7.00;99.90;;;;;;12786411;23;20180;-82
2023/04/21 23:36:33;;;;;;;9.00;6.30;;;7.00;99.90;;;;;;12761731;23;20562;-81
2023/04/21 23:41:35;;;;;;;11.43;6.63;;;6.70;99.90;;;;;;12788545;23;20363;-82
2023/04/21 23:46:38;;;;;;;6.17;4.87;;;;;;;;;;12786974;23;20222;-82
2023/04/21 23:51:41;;;;;;;8.37;6.33;;;6.60;99.90;;;;;;12786743;23;20214;-82
2023/04/21 23:56:44;;;;;;;12.50;6.50;;;;;;;;;;12788693;23;20249;-81
